Flight Track Log - Related Links

Times and Time Zones

All times are in EDT time to prevent confusion due to time zone crossing. See the CHH7802 flight status page for this flight to view local times or setup timezone preferences in your user account.

Time Position Orientation Groundspeed Altitude Reporting Facility
EDT Latitude Longitude Course Direction KTS MPH feet Rate Location/Type
Fri 08:00:00 AM 23.4938 113.3156 North  Level Estimated
Fri 08:01:00 AM 23.5951 113.3325 North  Level Estimated
Fri 08:02:00 AM 23.6965 113.3494 North  Level Estimated
Fri 08:03:00 AM 23.7978 113.3663 North  Level Estimated
Fri 08:04:00 AM 23.8992 113.3833 North  Level Estimated
Fri 08:05:00 AM 24.0005 113.4003 North  Level Estimated
Fri 08:06:00 AM 24.1018 113.4173 North  Level Estimated
Fri 08:07:00 AM 24.2031 113.4343 North  Level Estimated
Fri 08:08:00 AM 24.3045 113.4514 North  Level Estimated
Fri 08:09:00 AM 24.4058 113.4685 North  Level Estimated
Fri 08:10:00 AM 24.5071 113.4856 North  Level Estimated
Fri 08:11:00 AM 24.6085 113.5027 North  Level Estimated
Fri 08:12:00 AM 24.7098 113.5199 North  Level Estimated
Fri 08:13:00 AM 24.8111 113.5371 North  Level Estimated
Fri 08:14:00 AM 24.9124 113.5543 North  Level Estimated
Fri 08:15:00 AM 25.0138 113.5716 North  Level Estimated
Fri 08:16:00 AM 25.1151 113.5888 North  Level Estimated
Fri 08:17:00 AM 25.2164 113.6061 North  Level Estimated
Fri 08:18:00 AM 25.3177 113.6235 North  Level Estimated
Fri 08:19:00 AM 25.4190 113.6409 North  Level Estimated
Fri 08:20:00 AM 25.5203 113.6583 North  Level Estimated
Fri 08:21:00 AM 25.6216 113.6757 North  Level Estimated
Fri 08:22:00 AM 25.7229 113.6931 North  Level Estimated
Fri 08:23:00 AM 25.8242 113.7106 North  Level Estimated
Fri 08:24:00 AM 25.9255 113.7281 North  Level Estimated
Fri 08:25:00 AM 26.0268 113.7457 North  Level Estimated
Fri 08:26:00 AM 26.1281 113.7633 North  Level Estimated
Fri 08:27:00 AM 26.2294 113.7809 North  Level Estimated
Fri 08:28:00 AM 26.3307 113.7985 North  Level Estimated
Fri 08:29:00 AM 26.4320 113.8162 North  Level Estimated
Fri 08:30:00 AM 26.5333 113.8339 North  Level Estimated
Fri 08:31:00 AM 26.6346 113.8516 North  Level Estimated
Fri 08:32:00 AM 26.7358 113.8694 North  Level Estimated
Fri 08:33:00 AM 26.8371 113.8872 North  Level Estimated
Fri 08:34:00 AM 26.9384 113.9050 North  Level Estimated
Fri 08:35:00 AM 27.0397 113.9229 North  Level Estimated
Fri 08:36:00 AM 27.1409 113.9408 North  Level Estimated
Fri 08:37:00 AM 27.2422 113.9587 North  Level Estimated
Fri 08:38:00 AM 27.3435 113.9766 North  Level Estimated
Fri 08:39:00 AM 27.4499 113.9956 North  Level Estimated
Fri 08:40:00 AM 27.5563 114.0145 North  Level Estimated
Fri 08:41:00 AM 27.6628 114.0335 North  Level Estimated
Fri 08:42:00 AM 27.7692 114.0525 North  Level Estimated
Fri 08:43:00 AM 27.8756 114.0715 North  Level Estimated
Fri 08:44:00 AM 27.9820 114.0906 North  Level Estimated
Fri 08:45:00 AM 28.0884 114.1098 North  Level Estimated
Fri 08:46:00 AM 28.1948 114.1289 North  Level Estimated
Fri 08:47:00 AM 28.3012 114.1481 North  Level Estimated
Fri 08:48:00 AM 28.4076 114.1674 North  Level Estimated
Fri 08:49:00 AM 28.5140 114.1867 North  Level Estimated
Fri 08:50:00 AM 28.6204 114.2060 North  Level Estimated
Fri 08:51:00 AM 28.7268 114.2253 North  Level Estimated
Fri 08:52:00 AM 28.8332 114.2448 North  Level Estimated
Fri 08:53:00 AM 28.9396 114.2642 North  Level Estimated
Fri 08:54:00 AM 29.0460 114.2837 North  Level Estimated
Fri 08:55:00 AM 29.1524 114.3032 North  Level Estimated
Fri 08:56:00 AM 29.2588 114.3228 North  Level Estimated
Fri 08:57:00 AM 29.3651 114.3424 North  Level Estimated
Fri 08:58:00 AM 29.4715 114.3620 North  Level Estimated
Fri 08:59:00 AM 29.5779 114.3817 North  Level Estimated
Fri 09:00:00 AM 29.6842 114.4014 North  Level Estimated
Fri 09:01:00 AM 29.7906 114.4212 North  Level Estimated
Fri 09:02:00 AM 29.8970 114.4410 North  Level Estimated
Fri 09:03:00 AM 30.0033 114.4608 North  Level Estimated
Fri 09:04:00 AM 30.1097 114.4807 North  Level Estimated
Fri 09:05:00 AM 30.2160 114.5007 North  Level Estimated
Fri 09:06:00 AM 30.3224 114.5207 North  Level Estimated
Fri 09:07:00 AM 30.4287 114.5407 North  Level Estimated
Fri 09:08:00 AM 30.5351 114.5607 North  Level Estimated
Fri 09:09:00 AM 30.6414 114.5809 North  Level Estimated
Fri 09:10:00 AM 30.7478 114.6010 North  Level Estimated
Fri 09:11:00 AM 30.8541 114.6212 North  Level Estimated
Fri 09:12:00 AM 30.9604 114.6415 North  Level Estimated
Fri 09:13:00 AM 31.0668 114.6618 North  Level Estimated
Fri 09:14:00 AM 31.1731 114.6821 North  Level Estimated
Fri 09:15:00 AM 31.2794 114.7025 North  Level Estimated
Fri 09:16:00 AM 31.3857 114.7229 North  Level Estimated
Fri 09:17:00 AM 31.4921 114.7434 North  Level Estimated
Fri 09:18:00 AM 31.5984 114.7639 North  Level Estimated
Fri 09:19:00 AM 31.7047 114.7844 North  Level Estimated
Fri 09:20:00 AM 31.8110 114.8051 North  Level Estimated
Fri 09:21:00 AM 31.9173 114.8257 North  Level Estimated
Fri 09:22:00 AM 32.0236 114.8464 North  Level Estimated
Fri 09:23:00 AM 32.1299 114.8672 North  Level Estimated
Fri 09:24:00 AM 32.2362 114.8880 North  Level Estimated
Fri 09:25:00 AM 32.3425 114.9089 North  Level Estimated
Fri 09:26:00 AM 32.4487 114.9298 North  Level Estimated
Fri 09:27:00 AM 32.5550 114.9507 North  Level Estimated
Fri 09:28:00 AM 32.6613 114.9717 North  Level Estimated
Fri 09:29:00 AM 32.7676 114.9928 North  Level Estimated
Fri 09:30:00 AM 32.8739 115.0139 North  Level Estimated
Fri 09:31:00 AM 32.9801 115.0350 North  Level Estimated
Fri 09:32:00 AM 33.0864 115.0562 North  Level Estimated
Fri 09:33:00 AM 33.1926 115.0775 10° North  Level Estimated
Fri 09:34:00 AM 33.2989 115.0988 10° North  Level Estimated
Fri 09:35:00 AM 33.4052 115.1202 10° North  Level Estimated
Fri 09:36:00 AM 33.5114 115.1416 10° North  Level Estimated
Fri 09:37:00 AM 33.6177 115.1630 10° North  Level Estimated
Fri 09:38:00 AM 33.7239 115.1846 10° North  Level Estimated
Fri 09:39:00 AM 33.8301 115.2061 10° North  Level Estimated
Fri 09:40:00 AM 33.9364 115.2278 10° North  Level Estimated
Fri 09:41:00 AM 34.0426 115.2494 10° North  Level Estimated
Fri 09:42:00 AM 34.1488 115.2712 10° North  Level Estimated
Fri 09:43:00 AM 34.2551 115.2930 10° North  Level Estimated
Fri 09:44:00 AM 34.3613 115.3148 10° North  Level Estimated
Fri 09:45:00 AM 34.4675 115.3367 10° North  Level Estimated
Fri 09:46:00 AM 34.5737 115.3587 10° North  Level Estimated
Fri 09:47:00 AM 34.6799 115.3807 10° North  Level Estimated
Fri 09:48:00 AM 34.7861 115.4027 10° North  Level Estimated
Fri 09:49:00 AM 34.8923 115.4249 10° North  Level Estimated
Fri 09:50:00 AM 34.9985 115.4470 10° North  Level Estimated
Fri 09:51:00 AM 35.1047 115.4693 10° North  Level Estimated
Fri 09:52:00 AM 35.2109 115.4916 10° North  Level Estimated
Fri 09:53:00 AM 35.3171 115.5139 10° North  Level Estimated
Fri 09:54:00 AM 35.4233 115.5363 10° North  Level Estimated
Fri 09:55:00 AM 35.5294 115.5588 10° North  Level Estimated
Fri 09:56:00 AM 35.6356 115.5814 10° North  Level Estimated
Fri 09:57:00 AM 35.7418 115.6039 10° North  Level Estimated
Fri 09:58:00 AM 35.8479 115.6266 10° North  Level Estimated
Fri 09:59:00 AM 35.9541 115.6493 10° North  Level Estimated
Fri 10:00:00 AM 36.0603 115.6721 10° North  Level Estimated
Fri 10:01:00 AM 36.1664 115.6949 10° North  Level Estimated
Fri 10:02:00 AM 36.2726 115.7178 10° North  Level Estimated
Fri 10:03:00 AM 36.3787 115.7408 10° North  Level Estimated
Fri 10:04:00 AM 36.4848 115.7638 10° North  Level Estimated
Fri 10:05:00 AM 36.5910 115.7869 10° North  Level Estimated
Fri 10:06:00 AM 36.6971 115.8100 10° North  Level Estimated
Fri 10:07:00 AM 36.8032 115.8333 10° North  Level Estimated
Fri 10:08:00 AM 36.9094 115.8565 10° North  Level Estimated
Fri 10:09:00 AM 37.0155 115.8799 10° North  Level Estimated
Fri 10:10:00 AM 37.1216 115.9033 10° North  Level Estimated
Fri 10:10:50 AM 38.9414 116.4598 19° North 397 457 17,800  Level FlightAware ADS-B
Fri 10:11:00 AM 37.2277 115.9268 10° North  Level Estimated
Fri 10:11:02 AM 38.9614 116.4686 18° North 389 448 17,700  Level FlightAware ADS-B
Fri 10:12:15 AM 39.0794 116.5206 19° North 368 423 16,900 -730 Descending FlightAware ADS-B
Fri 10:15:25 AM 39.3339 116.6992 19° North 346 398 14,500 -914 Descending FlightAware ADS-B
Fri 10:15:45 AM 39.3540 116.7173 34° Northeast 309 356 13,700 -2,000 Descending FlightAware ADS-B
Fri 10:16:16 AM 39.3926 116.7507 33° Northeast 312 359 12,800 -1,500 Descending FlightAware ADS-B
Fri 10:16:45 AM 39.4292 116.7822 33° Northeast 305 351 12,200 -1,200 Descending FlightAware ADS-B
Fri 10:17:16 AM 39.4636 116.8109 32° Northeast 293 337 11,600 -1,400 Descending FlightAware ADS-B
Fri 10:17:45 AM 39.4987 116.8398 31° Northeast 287 330 10,800 -1,525 Descending FlightAware ADS-B
Fri 10:18:15 AM 39.5322 116.8677 32° Northeast 280 322 10,100 -1,333 Descending FlightAware ADS-B
Fri 10:18:30 AM 39.5474 116.8802 32° Northeast 276 318 9,800 -1,548 Descending FlightAware ADS-B
Fri 10:18:46 AM 39.5648 116.8947 32° Northeast 275 316 9,300 -1,935 Descending FlightAware ADS-B
Fri 10:19:01 AM 39.5806 116.9077 32° Northeast 277 319 8,800 -1,862 Descending FlightAware ADS-B
Fri 10:19:15 AM 39.5964 116.9205 29° Northeast 274 315 8,400 -1,895 Descending FlightAware ADS-B
Fri 10:19:20 AM 39.6015 116.9237 21° North 278 320 8,200 -2,182 Descending FlightAware ADS-B
Fri 10:19:26 AM 39.6091 116.9268 13° North 281 323 8,000 -1,800 Descending FlightAware ADS-B
Fri 10:19:30 AM 39.6153 116.9279 North 283 326 7,900 -750 Descending FlightAware ADS-B
Fri 10:19:50 AM 39.6414 116.9294 North 276 318 7,700 -500 Descending FlightAware ADS-B
Fri 10:20:06 AM 39.6598 116.9302 North 269 310 7,600 -600 Descending FlightAware ADS-B
Fri 10:20:20 AM 39.6787 116.9306 North 262 302 7,400 -621 Descending FlightAware ADS-B
Fri 10:20:35 AM 39.6963 116.9308 North 250 288 7,300 -400 Descending FlightAware ADS-B
Fri 10:20:50 AM 39.7126 116.9311 North 242 278 7,200 -774 Descending FlightAware ADS-B
Fri 10:21:06 AM 39.7308 116.9314 North 244 281 6,900 -800 Descending FlightAware ADS-B
Fri 10:21:20 AM 39.7471 116.9317 North 240 276 6,800 -171 Descending FlightAware ADS-B
Fri 10:21:41 AM 39.7689 116.9322 North 237 273 6,800  Level FlightAware ADS-B
Fri 10:22:01 AM 39.7901 116.9326 North 238 274 6,800 -150 Level FlightAware ADS-B
Fri 10:22:21 AM 39.8130 116.9329 North 228 262 6,700 -882 Descending FlightAware ADS-B
Fri 10:22:35 AM 39.8287 116.9332 North 233 268 6,300 -1,895 Descending FlightAware ADS-B
Fri 10:22:40 AM 39.8341 116.9329 354° North 234 269 6,100 -1,800 Descending FlightAware ADS-B
Fri 10:22:45 AM 39.8399 116.9311 343° North 235 270 6,000 -1,200 Descending FlightAware ADS-B
Fri 10:22:50 AM 39.8437 116.9289 332° Northwest 235 270 5,900 -600 Descending FlightAware ADS-B
Fri 10:22:55 AM 39.8487 116.9244 321° Northwest 233 268 5,900 -545 Level FlightAware ADS-B
Fri 10:23:01 AM 39.8525 116.9192 309° West 230 265 5,800 -600 Descending FlightAware ADS-B
Fri 10:23:05 AM 39.8554 116.9132 298° West 226 260 5,800 -600 Level FlightAware ADS-B
Fri 10:23:11 AM 39.8573 116.9069 286° West 222 255 5,700 -1,091 Descending FlightAware ADS-B
Fri 10:23:16 AM 39.8582 116.9012 279° West 220 253 5,600 -1,333 Descending FlightAware ADS-B
Fri 10:23:20 AM 39.8587 116.8943 273° West 220 253 5,500 -1,200 Descending FlightAware ADS-B
Fri 10:23:36 AM 39.8585 116.8749 268° West 218 251 5,200 -1,200 Descending FlightAware ADS-B
Fri 10:23:50 AM 39.8575 116.8550 266° West 217 250 4,900 -1,000 Descending FlightAware ADS-B
Fri 10:24:06 AM 39.8560 116.8358 263° West 211 243 4,700 -900 Descending FlightAware ADS-B
Fri 10:24:10 AM 39.8551 116.8296 257° West 211 243 4,600 -1,200 Descending FlightAware ADS-B
Fri 10:24:16 AM 39.8533 116.8231 246° West 210 242 4,500 -1,091 Descending FlightAware ADS-B
Fri 10:24:21 AM 39.8503 116.8173 234° Southwest 210 242 4,400 -1,200 Descending FlightAware ADS-B
Fri 10:24:26 AM 39.8476 116.8137 221° Southwest 209 241 4,300 -750 Descending FlightAware ADS-B
Fri 10:24:29 AM 39.8446 116.8109 212° Southwest 209 241 4,300 -1,333 Level FlightAware ADS-B
Fri 10:24:35 AM 39.8397 116.8079 201° Southwest 210 242 4,100 -1,636 Descending FlightAware ADS-B
Fri 10:24:40 AM 39.8352 116.8063 193° South 210 242 4,000 -1,200 Descending FlightAware ADS-B
Fri 10:24:45 AM 39.8292 116.8051 188° South 209 241 3,900 -1,200 Descending FlightAware ADS-B
Fri 10:25:00 AM 39.8152 116.8035 184° South 213 245 3,600 -1,400 Descending FlightAware ADS-B
Fri 10:25:15 AM 39.8000 116.8026 183° South 222 255 3,200 -1,400 Descending FlightAware ADS-B
Fri 10:25:30 AM 39.7833 116.8020 182° South 229 264 2,900 -500 Descending FlightAware ADS-B
Fri 10:25:51 AM 39.7630 116.8015 182° South 227 261 2,900  Level FlightAware ADS-B
Fri 10:26:10 AM 39.7421 116.8010 182° South 226 260 2,900 -176 Level FlightAware ADS-B
Fri 10:26:25 AM 39.7267 116.7992 194° South 223 257 2,800  Descending FlightAware ADS-B
Fri 10:26:31 AM 39.7218 116.7966 208° Southwest 219 252 2,900 600 Climbing FlightAware ADS-B
Fri 10:26:35 AM 39.7178 116.7930 220° Southwest 216 249 2,900  Level FlightAware ADS-B
Fri 10:26:41 AM 39.7142 116.7883 229° Southwest 214 246 2,900  Level FlightAware ADS-B
Fri 10:26:45 AM 39.7113 116.7825 242° Southwest 210 242 2,900  Level FlightAware ADS-B
Fri 10:26:51 AM 39.7102 116.7795 248° West 208 239 2,900 -545 Level FlightAware ADS-B
Fri 10:26:56 AM 39.7079 116.7714 253° West 203 234 2,800  Descending FlightAware ADS-B
Fri 10:27:11 AM 39.7044 116.7540 257° West 190 219 2,900 176 Climbing FlightAware ADS-B
Fri 10:27:30 AM 39.7011 116.7366 259° West 190 219 2,900  Level FlightAware ADS-B
Fri 10:27:33 AM 39.7002 116.7299 266° West 187 215 2,900  Level FlightAware ADS-B
Fri 10:27:51 AM 39.7027 116.7155 308° West 173 199 2,900  Level FlightAware ADS-B
Fri 10:28:53 AM 39.7424 116.6716 327° Northwest 166 191 2,900 -55 Level FlightAware ADS-B
Fri 10:29:40 AM 39.7744 116.6619 353° North 152 175 2,800 -179 Descending FlightAware ADS-B
Fri 10:30:00 AM 39.7885 116.6596 353° North 152 175 2,700 -258 Descending FlightAware ADS-B
Fri 10:31:13 AM 39.8409 116.6517 354° North 153 176 2,400 -286 Descending FlightAware ADS-B
Fri 10:31:45 AM 39.8635 116.6482 353° North 153 176 2,200 -231 Descending FlightAware ADS-B
Fri 10:32:05 AM 39.8780 116.6459 354° North 155 178 2,200 -146 Level FlightAware ADS-B
Fri 10:32:26 AM 39.8920 116.6437 353° North 155 178 2,100 -300 Descending FlightAware ADS-B
Fri 10:32:45 AM 39.9026 116.6420 353° North 154 177 2,000 -154 Descending FlightAware ADS-B
Fri 10:33:05 AM 39.9212 116.6391 354° North 151 174 2,000 -171 Level FlightAware ADS-B
Fri 10:33:20 AM 39.9299 116.6378 354° North 146 168 1,900 -125 Descending FlightAware ADS-B
Fri 10:33:53 AM 39.9523 116.6343 354° North 142 163 1,900  Level FlightAware ADS-B
Fri 10:36:00 AM 40.0801 116.5846 343° North  Level Estimated
Fri 10:37:00 AM 40.0801 116.5846 North  Level Estimated

Login

Don't have an account? Register now (free) for customized features, flight alerts, and more!